createdAt,value
2019-04-03T00:00:14.340Z,99216.07
2019-04-03T00:02:43.066Z,99224.33
2019-04-03T00:05:12.012Z,99224.76
2019-04-03T00:07:40.676Z,99222.58
2019-04-03T00:10:09.465Z,99217.61
2019-04-03T00:12:40.470Z,99217.17
2019-04-03T00:15:09.303Z,99215.55
2019-04-03T00:17:37.965Z,99215.56
2019-04-03T00:20:07.586Z,99212.39
2019-04-03T00:22:37.522Z,99211.36
2019-04-03T00:25:06.753Z,99214.41
2019-04-03T00:27:35.433Z,99212.05
2019-04-03T00:30:05.152Z,99212.95
2019-04-03T00:32:33.819Z,99215.38
2019-04-03T00:35:02.656Z,99216.92
2019-04-03T00:37:31.231Z,99212.20
2019-04-03T00:39:59.888Z,99213.40
2019-04-03T00:42:28.605Z,99209.84
2019-04-03T00:44:57.255Z,99208.97
2019-04-03T00:47:26.059Z,99208.41
2019-04-03T00:49:56.112Z,99208.61
2019-04-03T00:52:27.209Z,99207.80
2019-04-03T00:54:56.511Z,99204.55
2019-04-03T00:57:26.409Z,99210.63
2019-04-03T00:59:56.488Z,99206.78
2019-04-03T01:02:27.848Z,99198.06
2019-04-03T01:04:57.982Z,99200.73
2019-04-03T01:07:27.542Z,99206.50
2019-04-03T01:09:59.080Z,99205.09
2019-04-03T01:12:27.379Z,99208.40
2019-04-03T01:14:56.075Z,99207.33
2019-04-03T01:17:24.726Z,99208.04
2019-04-03T01:19:53.547Z,99209.13
2019-04-03T01:22:22.220Z,99208.81
2019-04-03T01:24:50.882Z,99211.22
2019-04-03T01:27:25.018Z,99211.08
2019-04-03T01:29:54.022Z,99200.70
2019-04-03T01:32:22.803Z,99197.20
2019-04-03T01:34:51.466Z,99187.27
2019-04-03T01:37:20.141Z,99188.19
2019-04-03T01:39:50.739Z,99190.66
2019-04-03T01:42:21.500Z,99184.59
2019-04-03T01:44:49.699Z,99186.51
2019-04-03T01:47:18.431Z,99184.28
2019-04-03T01:49:47.228Z,99179.55
2019-04-03T01:52:15.863Z,99174.48
2019-04-03T01:54:44.520Z,99172.80
2019-04-03T01:57:13.484Z,99168.11
2019-04-03T01:59:42.174Z,99177.16
2019-04-03T02:02:10.841Z,99177.33
2019-04-03T02:04:42.019Z,99172.92
2019-04-03T02:07:10.252Z,99174.73
2019-04-03T02:09:38.916Z,99159.62
2019-04-03T02:12:07.568Z,99154.41
2019-04-03T02:14:36.255Z,99154.28
2019-04-03T02:17:05.112Z,99145.63
2019-04-03T02:19:33.765Z,99150.88
2019-04-03T02:22:02.430Z,99143.88
2019-04-03T02:24:31.963Z,99137.69
2019-04-03T02:27:02.753Z,99149.69
2019-04-03T02:29:32.119Z,99139.13
2019-04-03T02:32:00.801Z,99134.09
2019-04-03T02:34:33.965Z,99119.88
2019-04-03T02:37:00.737Z,99112.37
2019-04-03T02:39:29.665Z,99117.15
2019-04-03T02:41:58.815Z,99112.25
2019-04-03T02:44:27.456Z,99111.67
2019-04-03T02:46:59.536Z,99116.80
2019-04-03T02:49:26.600Z,99125.58
2019-04-03T02:51:55.713Z,99126.00
2019-04-03T02:54:29.081Z,99122.30
2019-04-03T02:56:58.425Z,99124.42
2019-04-03T02:59:27.099Z,99120.92
2019-04-03T03:01:56.197Z,99122.18
2019-04-03T03:04:26.345Z,99125.84
2019-04-03T03:06:55.069Z,99124.69
2019-04-03T03:09:23.893Z,99119.81
2019-04-03T03:11:55.991Z,99130.07
2019-04-03T03:14:24.040Z,99125.91
2019-04-03T03:16:53.332Z,99124.81
2019-04-03T03:19:23.424Z,99126.63
2019-04-03T03:21:55.364Z,99127.62
2019-04-03T03:24:28.490Z,99122.48
2019-04-03T03:26:56.005Z,99125.83
2019-04-03T03:29:27.191Z,99124.98
2019-04-03T03:32:09.224Z,99125.84
2019-04-03T03:34:48.197Z,99121.89
2019-04-03T03:37:02.214Z,99116.13
2019-04-03T03:39:29.595Z,99120.70
2019-04-03T03:41:59.145Z,99122.05
2019-04-03T03:44:28.474Z,99122.72
2019-04-03T03:47:01.055Z,99115.04
2019-04-03T03:49:30.212Z,99118.59
2019-04-03T03:52:02.594Z,99118.33
2019-04-03T03:54:30.898Z,99126.31
2019-04-03T03:57:04.279Z,99129.16
2019-04-03T03:59:31.760Z,99117.98
2019-04-03T04:02:03.451Z,99115.84
2019-04-03T04:04:31.039Z,99114.00
2019-04-03T04:07:02.688Z,99112.53
2019-04-03T04:09:31.023Z,99120.97
2019-04-03T04:12:04.500Z,99120.67
2019-04-03T04:14:30.896Z,99117.02
2019-04-03T04:17:00.233Z,99109.67
2019-04-03T04:19:30.846Z,99119.50
2019-04-03T04:22:01.009Z,99113.24
2019-04-03T04:24:29.781Z,99114.86
2019-04-03T04:26:59.015Z,99119.91
2019-04-03T04:29:27.681Z,99122.84
2019-04-03T04:31:56.395Z,99123.29
2019-04-03T04:34:25.054Z,99119.63
2019-04-03T04:36:55.322Z,99118.78
2019-04-03T04:39:24.341Z,99122.30
2019-04-03T04:41:53.009Z,99118.33
2019-04-03T04:44:21.681Z,99118.46
2019-04-03T04:46:50.432Z,99126.01
2019-04-03T04:49:19.088Z,99122.42
2019-04-03T04:51:47.821Z,99121.50
2019-04-03T04:54:17.737Z,99123.14
2019-04-03T04:56:46.443Z,99121.58
2019-04-03T04:59:15.107Z,99122.35
2019-04-03T05:01:43.775Z,99120.14
2019-04-03T05:04:15.044Z,99112.95
2019-04-03T05:06:42.989Z,99125.94
2019-04-03T05:09:11.608Z,99115.61
2019-04-03T05:11:40.296Z,99118.76
2019-04-03T05:14:09.059Z,99116.89
2019-04-03T05:16:37.781Z,99114.79
2019-04-03T05:19:10.221Z,99122.67
2019-04-03T05:21:36.936Z,99118.98
2019-04-03T05:24:12.634Z,99124.76
2019-04-03T05:26:36.315Z,99124.82
2019-04-03T05:29:05.099Z,99132.58
2019-04-03T05:31:33.760Z,99128.09
2019-04-03T05:34:02.451Z,99129.18
2019-04-03T05:36:31.214Z,99131.78
2019-04-03T05:39:02.582Z,99131.28
2019-04-03T05:41:30.412Z,99136.44
2019-04-03T05:44:00.095Z,99139.03
2019-04-03T05:46:30.113Z,99138.67
2019-04-03T05:48:59.066Z,99142.56
2019-04-03T05:51:29.965Z,99139.21
2019-04-03T05:53:58.457Z,99140.23
2019-04-03T05:56:27.267Z,99145.41
2019-04-03T05:59:00.379Z,99146.41
2019-04-03T06:01:26.956Z,99145.02
2019-04-03T06:03:55.683Z,99150.25
2019-04-03T06:06:24.374Z,99157.97
2019-04-03T06:08:56.225Z,99156.72
2019-04-03T06:11:23.428Z,99152.97
2019-04-03T06:13:52.398Z,99160.39
2019-04-03T06:16:23.422Z,99149.20
2019-04-03T06:18:52.082Z,99148.98
2019-04-03T06:21:21.182Z,99145.98
2019-04-03T06:23:50.917Z,99143.27
2019-04-03T06:26:20.838Z,99140.70
2019-04-03T06:28:49.613Z,99135.76
2019-04-03T06:31:18.279Z,99132.11
2019-04-03T06:33:47.349Z,99138.20
2019-04-03T06:36:17.190Z,99131.89
2019-04-03T06:38:46.694Z,99130.78
2019-04-03T06:41:15.705Z,99126.55
2019-04-03T06:43:45.083Z,99135.47
2019-04-03T06:46:14.092Z,99129.02
2019-04-03T06:48:43.902Z,99130.22
2019-04-03T06:51:14.004Z,99125.27
2019-04-03T06:53:42.972Z,99123.56
2019-04-03T06:56:11.651Z,99118.45
2019-04-03T06:58:41.849Z,99111.77
2019-04-03T07:01:10.865Z,99113.95
2019-04-03T07:03:39.494Z,99109.59
2019-04-03T07:06:08.263Z,99104.65
2019-04-03T07:08:40.110Z,99105.60
2019-04-03T07:11:07.644Z,99106.99
2019-04-03T07:13:36.347Z,99104.91
2019-04-03T07:16:06.078Z,99107.58
2019-04-03T07:18:37.033Z,99111.55
2019-04-03T07:21:05.231Z,99113.16
2019-04-03T07:23:33.899Z,99111.55
2019-04-03T07:26:02.942Z,99108.60
2019-04-03T07:28:33.141Z,99098.60
2019-04-03T07:31:02.037Z,99095.58
2019-04-03T07:33:30.847Z,99101.64
2019-04-03T07:35:59.896Z,99102.13
2019-04-03T07:38:28.873Z,99096.04
2019-04-03T07:40:57.694Z,99091.72
2019-04-03T07:43:27.565Z,99087.30
2019-04-03T07:45:56.604Z,99094.39
2019-04-03T07:48:25.297Z,99094.02
2019-04-03T07:50:54.023Z,99108.54
2019-04-03T07:53:23.068Z,99099.66
2019-04-03T07:55:51.946Z,99095.41
2019-04-03T07:58:20.952Z,99092.43
2019-04-03T08:00:49.607Z,99099.44
2019-04-03T08:03:20.011Z,99096.00
2019-04-03T08:05:48.655Z,99095.38
2019-04-03T08:08:17.336Z,99104.14
2019-04-03T08:10:45.997Z,99105.92
2019-04-03T08:13:15.027Z,99104.62
2019-04-03T08:15:44.432Z,99100.41
2019-04-03T08:18:14.641Z,99101.84
2019-04-03T08:20:43.329Z,99100.41
2019-04-03T08:23:12.036Z,99101.03
2019-04-03T08:25:42.346Z,99103.61
2019-04-03T08:28:11.114Z,99101.90
2019-04-03T08:30:40.595Z,99104.94
2019-04-03T08:33:15.897Z,99104.78
2019-04-03T08:35:40.590Z,99103.19
2019-04-03T08:38:10.924Z,99103.50
2019-04-03T08:40:39.695Z,99108.38
2019-04-03T08:43:08.598Z,99107.74
2019-04-03T08:45:38.415Z,99105.48
2019-04-03T08:48:08.065Z,99105.49
2019-04-03T08:50:37.201Z,99105.52
2019-04-03T08:53:08.344Z,99102.13
2019-04-03T08:55:36.294Z,99115.83
2019-04-03T08:58:05.057Z,99103.73
2019-04-03T09:00:33.895Z,99102.63
2019-04-03T09:03:04.057Z,99099.50
2019-04-03T09:05:33.089Z,99103.14
2019-04-03T09:08:01.997Z,99102.28
2019-04-03T09:10:32.173Z,99099.10
2019-04-03T09:13:01.209Z,99098.90
2019-04-03T09:15:30.226Z,99101.04
2019-04-03T09:17:59.012Z,99093.09
2019-04-03T09:20:27.820Z,99090.89
2019-04-03T09:22:56.493Z,99089.53
2019-04-03T09:25:25.162Z,99088.92
2019-04-03T09:27:53.864Z,99082.78
2019-04-03T09:30:23.172Z,99079.73
2019-04-03T09:32:53.997Z,99075.95
2019-04-03T09:35:22.402Z,99072.43
2019-04-03T09:37:51.103Z,99068.81
2019-04-03T09:40:19.831Z,99074.80
2019-04-03T09:42:51.240Z,99073.52
2019-04-03T09:45:19.289Z,99069.63
2019-04-03T09:47:48.295Z,99072.23
2019-04-03T09:50:17.505Z,99080.63
2019-04-03T09:52:49.449Z,99071.05
2019-04-03T09:55:16.929Z,99070.61
2019-04-03T09:57:45.607Z,99066.19
2019-04-03T10:00:14.902Z,99065.94
2019-04-03T10:02:44.301Z,99063.03
2019-04-03T10:05:15.277Z,99055.88
2019-04-03T10:07:44.240Z,99051.12
2019-04-03T10:10:14.004Z,99045.89
2019-04-03T10:12:47.312Z,99046.89
2019-04-03T10:15:18.076Z,99048.42
2019-04-03T10:17:46.114Z,99045.35
2019-04-03T10:20:17.248Z,99041.00
2019-04-03T10:22:47.006Z,99044.22
2019-04-03T10:25:16.239Z,99047.44
2019-04-03T10:27:44.866Z,99037.73
2019-04-03T10:30:16.682Z,99026.50
2019-04-03T10:32:46.063Z,99018.44
2019-04-03T10:35:16.769Z,99019.67
2019-04-03T10:37:47.048Z,99016.08
2019-04-03T10:40:16.378Z,99011.72
2019-04-03T10:42:46.088Z,99012.86
2019-04-03T10:45:16.401Z,99017.55
2019-04-03T10:47:45.717Z,99014.02
2019-04-03T10:50:15.381Z,99009.45
2019-04-03T10:52:47.687Z,99004.46
2019-04-03T10:55:15.981Z,99008.48
2019-04-03T10:57:45.022Z,98999.61
2019-04-03T11:00:15.515Z,98998.53
2019-04-03T11:02:44.304Z,98996.27
2019-04-03T11:05:13.549Z,98997.14
2019-04-03T11:07:42.690Z,99003.48
2019-04-03T11:10:11.972Z,98997.17
2019-04-03T11:12:40.648Z,98995.09
2019-04-03T11:15:11.523Z,98991.52
2019-04-03T11:17:40.590Z,98987.83
2019-04-03T11:20:10.862Z,98993.33
2019-04-03T11:22:42.155Z,98992.56
2019-04-03T11:25:13.958Z,98986.91
2019-04-03T11:27:43.361Z,98990.91
2019-04-03T11:30:17.352Z,98983.33
2019-04-03T11:32:43.053Z,98983.05
2019-04-03T11:35:12.005Z,98987.48
2019-04-03T11:37:40.761Z,98985.34
2019-04-03T11:40:10.569Z,98977.17
2019-04-03T11:42:39.325Z,98976.39
2019-04-03T11:45:09.058Z,98970.73
2019-04-03T11:47:39.155Z,98981.30
2019-04-03T11:50:08.823Z,98979.28
2019-04-03T11:52:37.823Z,98972.83
2019-04-03T11:55:10.092Z,98962.08
2019-04-03T11:57:38.439Z,98969.10
2019-04-03T12:00:11.969Z,98965.59
2019-04-03T12:02:44.020Z,98963.66
2019-04-03T12:05:13.174Z,98968.55
2019-04-03T12:07:44.470Z,98959.27
2019-04-03T12:10:13.535Z,98968.00
2019-04-03T12:12:42.860Z,98969.22
2019-04-03T12:15:15.085Z,98956.00
2019-04-03T12:17:42.600Z,98955.63
2019-04-03T12:20:14.970Z,98960.54
2019-04-03T12:22:44.477Z,98955.73
2019-04-03T12:25:14.218Z,98955.60
2019-04-03T12:27:44.927Z,98950.70
2019-04-03T12:30:14.050Z,98947.27
2019-04-03T12:32:47.964Z,98947.89
2019-04-03T12:35:13.992Z,98949.78
2019-04-03T12:37:42.992Z,98941.78
2019-04-03T12:40:12.590Z,98941.32
2019-04-03T12:42:41.321Z,98938.94
2019-04-03T12:45:10.945Z,98950.66
2019-04-03T12:47:43.125Z,98949.32
2019-04-03T12:50:12.243Z,98953.98
2019-04-03T12:52:43.366Z,98962.28
2019-04-03T12:55:11.433Z,98996.46
2019-04-03T12:57:40.381Z,99007.12
2019-04-03T13:00:12.710Z,99008.41
2019-04-03T13:02:42.465Z,99013.45
2019-04-03T13:05:12.091Z,99014.12
2019-04-03T13:07:40.849Z,98995.06
2019-04-03T13:10:10.433Z,98997.66
2019-04-03T13:12:39.565Z,98998.42
2019-04-03T13:15:10.418Z,99006.44
2019-04-03T13:17:39.333Z,99012.48
2019-04-03T13:20:08.504Z,99009.78
2019-04-03T13:22:37.833Z,99031.94
2019-04-03T13:25:10.200Z,99019.66
2019-04-03T13:27:38.862Z,99034.94
2019-04-03T13:30:12.400Z,99023.25
2019-04-03T13:32:40.119Z,99021.95
2019-04-03T13:35:09.545Z,99021.44
2019-04-03T13:37:39.752Z,99025.20
2019-04-03T13:40:09.704Z,99023.41
2019-04-03T13:42:38.667Z,99026.34
2019-04-03T13:45:09.364Z,99033.55
2019-04-03T13:47:41.610Z,99044.02
2019-04-03T13:50:11.236Z,99056.63
2019-04-03T13:52:43.541Z,99063.90
2019-04-03T13:55:12.242Z,99058.61
2019-04-03T13:57:41.537Z,99063.83
2019-04-03T14:00:19.860Z,99070.53
2019-04-03T14:02:44.869Z,99077.11
2019-04-03T14:05:13.596Z,99079.72
2019-04-03T14:07:42.699Z,99059.84
2019-04-03T14:10:12.349Z,99038.44
2019-04-03T14:12:44.244Z,99026.95
2019-04-03T14:15:12.631Z,99022.34
2019-04-03T14:17:54.633Z,99006.16
2019-04-03T14:20:14.265Z,99009.70
2019-04-03T14:22:44.101Z,99011.16
2019-04-03T14:25:21.002Z,99000.96
2019-04-03T14:27:44.445Z,98996.56
2019-04-03T14:30:13.451Z,98987.02
2019-04-03T14:32:44.960Z,98985.81
2019-04-03T14:35:40.498Z,98971.75
2019-04-03T14:37:43.102Z,98960.56
2019-04-03T14:40:13.057Z,98961.29
2019-04-03T14:42:42.286Z,98950.98
2019-04-03T14:45:14.594Z,98952.21
2019-04-03T14:47:41.894Z,98939.64
2019-04-03T14:50:11.251Z,98937.38
2019-04-03T14:52:39.885Z,98936.78
2019-04-03T14:55:18.133Z,98939.95
2019-04-03T14:57:40.297Z,98953.20
2019-04-03T15:00:22.974Z,98950.48
2019-04-03T15:02:41.010Z,98952.42
2019-04-03T15:05:10.812Z,98956.30
2019-04-03T15:07:40.407Z,98949.87
2019-04-03T15:10:10.786Z,98939.55
2019-04-03T15:12:40.273Z,98915.22
2019-04-03T15:15:10.329Z,98916.02
2019-04-03T15:17:39.404Z,98920.02
2019-04-03T15:20:10.407Z,98919.45
2019-04-03T15:22:40.358Z,98914.69
2019-04-03T15:25:10.104Z,98915.27
2019-04-03T15:27:39.206Z,98917.06
2019-04-03T15:30:12.056Z,98926.36
2019-04-03T15:32:41.709Z,98925.13
2019-04-03T15:35:10.525Z,98934.61
2019-04-03T15:37:41.494Z,98935.00
2019-04-03T15:40:10.625Z,98927.72
2019-04-03T15:42:41.243Z,98928.46
2019-04-03T15:45:11.757Z,98929.95
2019-04-03T15:47:45.011Z,98919.58
2019-04-03T15:50:12.090Z,98918.51
2019-04-03T15:52:43.463Z,98908.42
2019-04-03T15:55:13.012Z,98903.73
2019-04-03T15:57:41.671Z,98901.23
2019-04-03T16:00:12.453Z,98895.66
2019-04-03T16:02:44.373Z,98897.42
2019-04-03T16:05:12.319Z,98895.50
2019-04-03T16:07:42.436Z,98891.99
2019-04-03T16:10:12.334Z,98897.27
2019-04-03T16:12:43.448Z,98891.70
2019-04-03T16:15:13.863Z,98890.70
2019-04-03T16:17:43.166Z,98899.05
2019-04-03T16:20:16.017Z,98897.14
2019-04-03T16:22:43.983Z,98894.30
2019-04-03T16:25:15.549Z,98885.95
2019-04-03T16:27:44.385Z,98885.09
2019-04-03T16:30:15.319Z,98897.45
2019-04-03T16:32:45.209Z,98897.53
2019-04-03T16:35:14.781Z,98895.55
2019-04-03T16:37:45.234Z,98899.29
2019-04-03T16:40:14.899Z,98895.02
2019-04-03T16:42:47.479Z,98904.05
2019-04-03T16:45:15.086Z,98917.75
2019-04-03T16:47:45.232Z,98923.50
2019-04-03T16:50:15.418Z,98930.86
2019-04-03T16:52:46.785Z,98919.86
2019-04-03T16:55:15.879Z,98917.98
2019-04-03T16:57:46.041Z,98908.89
2019-04-03T17:00:15.583Z,98912.07
2019-04-03T17:02:44.873Z,98917.11
2019-04-03T17:05:14.055Z,98924.56
2019-04-03T17:07:42.831Z,98924.52
2019-04-03T17:10:12.270Z,98918.81
2019-04-03T17:12:41.742Z,98913.91
2019-04-03T17:15:11.901Z,98913.81
2019-04-03T17:17:41.161Z,98914.27
2019-04-03T17:20:10.602Z,98907.59
2019-04-03T17:22:41.169Z,98896.61
2019-04-03T17:25:10.685Z,98893.11
2019-04-03T17:27:39.660Z,98892.92
2019-04-03T17:30:10.347Z,98888.39
2019-04-03T17:32:40.048Z,98881.52
2019-04-03T17:35:09.964Z,98868.50
2019-04-03T17:37:38.740Z,98869.81
2019-04-03T17:40:10.277Z,98870.31
2019-04-03T17:42:40.235Z,98868.13
2019-04-03T17:45:09.926Z,98853.47
2019-04-03T17:47:38.604Z,98851.28
2019-04-03T17:50:08.773Z,98848.05
2019-04-03T17:52:38.216Z,98847.22
2019-04-03T17:55:10.056Z,98844.80
2019-04-03T17:57:50.944Z,98850.66
2019-04-03T18:00:21.963Z,98839.23
2019-04-03T18:02:51.350Z,98830.45
2019-04-03T18:05:20.221Z,98847.66
2019-04-03T18:07:49.658Z,98855.59
2019-04-03T18:10:18.817Z,98853.22
2019-04-03T18:12:47.482Z,98846.84
2019-04-03T18:15:17.959Z,98834.42
2019-04-03T18:17:46.644Z,98820.62
2019-04-03T18:20:15.605Z,98839.74
2019-04-03T18:22:44.276Z,98846.94
2019-04-03T18:25:13.308Z,98844.03
2019-04-03T18:27:41.976Z,98836.33
2019-04-03T18:30:12.698Z,98835.51
2019-04-03T18:32:41.420Z,98838.44
2019-04-03T18:35:10.924Z,98843.22
2019-04-03T18:37:41.160Z,98840.81
2019-04-03T18:40:14.102Z,98838.47
2019-04-03T18:42:41.298Z,98824.66
2019-04-03T18:45:24.163Z,98816.70
2019-04-03T18:47:43.926Z,98801.27
2019-04-03T18:50:12.369Z,98790.64
2019-04-03T18:52:41.072Z,98793.74
2019-04-03T18:55:09.919Z,98784.98
2019-04-03T18:57:38.901Z,98780.95
2019-04-03T19:00:09.213Z,98777.74
2019-04-03T19:02:38.054Z,98776.42
2019-04-03T19:05:10.037Z,98766.36
2019-04-03T19:07:38.720Z,98761.91
2019-04-03T19:10:08.385Z,98759.85
2019-04-03T19:12:37.115Z,98770.25
2019-04-03T19:15:07.011Z,98779.80
2019-04-03T19:17:35.735Z,98798.94
2019-04-03T19:20:10.671Z,98804.25
2019-04-03T19:22:36.405Z,98810.05
2019-04-03T19:25:05.974Z,98809.48
2019-04-03T19:27:34.655Z,98814.56
2019-04-03T19:30:06.789Z,98815.67
2019-04-03T19:32:34.241Z,98811.41
2019-04-03T19:35:03.289Z,98795.20
2019-04-03T19:37:34.149Z,98781.05
2019-04-03T19:40:02.341Z,98768.99
2019-04-03T19:42:31.047Z,98764.39
2019-04-03T19:44:59.708Z,98776.80
2019-04-03T19:47:28.370Z,98784.46
2019-04-03T19:50:00.022Z,98804.80
2019-04-03T19:52:27.466Z,98828.38
2019-04-03T19:54:56.125Z,98843.23
2019-04-03T19:57:24.955Z,98859.68
2019-04-03T19:59:55.343Z,98886.48
2019-04-03T20:02:23.997Z,98915.10
2019-04-03T20:04:52.683Z,98936.31
2019-04-03T20:07:21.342Z,98932.80
2019-04-03T20:09:50.000Z,98946.24
2019-04-03T20:12:19.100Z,98957.81
2019-04-03T20:14:58.126Z,98971.81
2019-04-03T20:17:18.493Z,98976.42
2019-04-03T20:19:47.213Z,98961.69
2019-04-03T20:22:15.888Z,98968.05
2019-04-03T20:24:44.934Z,98981.46
2019-04-03T20:27:14.892Z,98990.30
2019-04-03T20:29:44.384Z,98977.56
2019-04-03T20:32:13.353Z,98972.47
2019-04-03T20:34:44.481Z,98988.11
2019-04-03T20:37:12.762Z,98991.18
2019-04-03T20:39:41.447Z,98996.89
2019-04-03T20:42:10.453Z,98977.19
2019-04-03T20:44:39.300Z,98961.77
2019-04-03T20:47:08.234Z,98958.56
2019-04-03T20:49:36.921Z,98963.50
2019-04-03T20:52:06.436Z,98955.08
2019-04-03T20:54:36.728Z,98956.66
2019-04-03T20:57:06.101Z,98961.89
2019-04-03T20:59:35.922Z,98970.29
2019-04-03T21:02:08.011Z,98992.45
2019-04-03T21:04:36.203Z,99005.40
2019-04-03T21:07:05.936Z,99009.24
2019-04-03T21:09:35.320Z,99005.16
2019-04-03T21:12:05.649Z,99013.97
2019-04-03T21:14:35.357Z,99015.78
2019-04-03T21:17:05.275Z,99033.39
2019-04-03T21:19:34.722Z,99036.57
2019-04-03T21:22:04.428Z,99041.20
2019-04-03T21:24:34.905Z,99040.41
2019-04-03T21:27:03.713Z,99024.06
2019-04-03T21:29:33.349Z,99009.42
2019-04-03T21:32:02.272Z,99001.62
2019-04-03T21:34:32.807Z,98985.36
2019-04-03T21:37:02.939Z,98978.98
2019-04-03T21:39:33.747Z,98979.48
2019-04-03T21:42:02.654Z,98990.26
2019-04-03T21:44:32.518Z,98981.80
2019-04-03T21:47:01.485Z,98983.27
2019-04-03T21:49:30.757Z,98974.47
2019-04-03T21:51:59.693Z,98974.06
2019-04-03T21:54:29.210Z,98977.53
2019-04-03T21:56:59.468Z,98969.55
2019-04-03T21:59:28.698Z,98969.86
2019-04-03T22:01:58.735Z,98965.96
2019-04-03T22:04:27.997Z,98979.70
2019-04-03T22:06:57.855Z,98983.89
2019-04-03T22:09:28.811Z,98982.57
2019-04-03T22:11:58.528Z,98975.50
2019-04-03T22:14:27.475Z,98984.02
2019-04-03T22:16:56.505Z,98960.97
2019-04-03T22:19:27.607Z,98930.34
2019-04-03T22:21:57.225Z,98890.44
2019-04-03T22:24:26.742Z,98875.33
2019-04-03T22:26:55.750Z,98888.41
2019-04-03T22:29:24.696Z,98897.41
2019-04-03T22:31:54.550Z,98910.13
2019-04-03T22:34:24.107Z,98915.36
2019-04-03T22:36:53.553Z,98919.55
2019-04-03T22:39:22.814Z,98933.66
2019-04-03T22:41:52.037Z,98934.73
2019-04-03T22:44:21.456Z,98926.42
2019-04-03T22:46:52.049Z,98921.73
2019-04-03T22:49:22.175Z,98929.45
2019-04-03T22:51:51.488Z,98920.70
2019-04-03T22:54:20.756Z,98920.56
2019-04-03T22:56:50.245Z,98933.81
2019-04-03T22:59:19.951Z,98939.59
2019-04-03T23:01:49.667Z,98916.51
2019-04-03T23:04:18.434Z,98899.70
2019-04-03T23:06:49.363Z,98914.69
2019-04-03T23:09:17.692Z,98941.70
2019-04-03T23:11:46.397Z,98955.14
2019-04-03T23:14:15.378Z,98953.47
2019-04-03T23:16:44.044Z,98962.21
2019-04-03T23:19:12.806Z,98976.67
2019-04-03T23:21:41.498Z,98973.56
2019-04-03T23:24:10.237Z,98950.16
2019-04-03T23:26:39.578Z,98947.28
2019-04-03T23:29:08.957Z,98942.00
2019-04-03T23:31:38.237Z,98935.34
2019-04-03T23:34:07.572Z,98928.13
2019-04-03T23:36:36.290Z,98939.13
2019-04-03T23:39:08.844Z,98939.48
2019-04-03T23:41:38.232Z,98937.55
2019-04-03T23:44:10.596Z,98925.13
2019-04-03T23:46:37.935Z,98884.95
2019-04-03T23:49:07.251Z,98864.43
2019-04-03T23:51:35.959Z,98868.08
2019-04-03T23:54:04.680Z,98870.17
2019-04-03T23:56:33.978Z,98864.71
2019-04-03T23:59:03.341Z,98865.66
